Time;durP1;ratioP1;P1;durP2;ratioP2;P2;SDS_P1;SDS_P2;PMS_P1;PMS_P2;Temp;Humidity;BMP_temperature;BMP_pressure;BME280_temperature;BME280_humidity;BME280_pressure;Samples;Min_cycle;Max_cycle;Signal;HPM_P1;HPM_P2
2023/10/10 00:02:05;;;;;;;9.00;3.40;;;14.60;99.90;;;;;;5055038;28;21068;-62
2023/10/10 00:04:35;;;;;;;6.73;3.30;;;14.60;99.90;;;;;;5055130;28;20475;-62
2023/10/10 00:07:03;;;;;;;8.13;3.70;;;14.60;99.90;;;;;;5055866;28;20847;-64
2023/10/10 00:09:30;;;;;;;6.77;3.10;;;14.70;99.90;;;;;;5055739;28;20785;-64
2023/10/10 00:11:58;;;;;;;6.37;3.97;;;14.70;99.90;;;;;;5055877;28;20495;-62
2023/10/10 00:14:29;;;;;;;6.07;3.60;;;14.70;99.90;;;;;;5055068;28;20451;-62
2023/10/10 00:16:59;;;;;;;14.03;3.87;;;14.70;99.90;;;;;;5055194;28;20431;-62
2023/10/10 00:19:30;;;;;;;5.53;2.90;;;14.70;99.90;;;;;;5055129;28;20535;-63
2023/10/10 00:21:57;;;;;;;8.10;3.70;;;14.70;99.90;;;;;;5055063;28;20488;-61
2023/10/10 00:24:30;;;;;;;9.97;3.83;;;14.60;99.90;;;;;;5054862;28;20439;-63
2023/10/10 00:26:59;;;;;;;5.70;3.53;;;14.70;99.90;;;;;;5054689;28;20428;-63
2023/10/10 00:29:28;;;;;;;5.93;3.47;;;14.60;99.90;;;;;;5055127;28;20448;-63
2023/10/10 00:32:05;;;;;;;4.87;3.50;;;14.60;99.90;;;;;;5054521;28;20525;-63
2023/10/10 00:34:33;;;;;;;7.70;3.50;;;14.60;99.90;;;;;;5054434;28;20446;-63
2023/10/10 00:37:07;;;;;;;9.43;3.60;;;14.60;99.90;;;;;;5054589;28;20989;-62
2023/10/10 00:39:36;;;;;;;5.67;3.10;;;14.60;99.90;;;;;;5058693;28;20424;-63
2023/10/10 00:42:06;;;;;;;5.00;3.50;;;14.60;99.90;;;;;;5060568;28;20550;-63
2023/10/10 00:44:37;;;;;;;8.13;3.33;;;14.60;99.90;;;;;;5061712;28;20432;-64
2023/10/10 00:47:12;;;;;;;8.60;3.67;;;14.50;99.90;;;;;;5055052;28;20475;-64
2023/10/10 00:49:43;;;;;;;7.50;3.37;;;14.50;99.90;;;;;;5054414;28;20511;-63
2023/10/10 00:52:12;;;;;;;5.07;3.27;;;14.50;99.90;;;;;;5054200;28;20521;-64
2023/10/10 00:54:43;;;;;;;5.30;3.23;;;14.50;99.90;;;;;;5053999;28;20505;-63
2023/10/10 00:57:16;;;;;;;4.87;3.30;;;14.50;99.90;;;;;;5054331;28;20428;-63
2023/10/10 00:59:45;;;;;;;6.77;3.20;;;14.60;99.90;;;;;;5054749;28;20429;-63
2023/10/10 01:02:13;;;;;;;7.87;3.20;;;14.60;99.90;;;;;;5053461;28;20483;-63
2023/10/10 01:04:48;;;;;;;5.60;3.00;;;14.60;99.90;;;;;;5054048;28;20452;-63
2023/10/10 01:07:18;;;;;;;3.50;2.80;;;14.60;99.90;;;;;;5054005;28;20424;-63
2023/10/10 01:09:55;;;;;;;5.87;3.40;;;14.60;99.90;;;;;;5054091;28;20519;-63
2023/10/10 01:12:24;;;;;;;5.13;3.30;;;14.60;99.90;;;;;;5053870;28;20465;-63
2023/10/10 01:14:57;;;;;;;3.97;3.50;;;14.60;99.90;;;;;;5054057;28;20444;-63
2023/10/10 01:17:29;;;;;;;6.13;3.10;;;14.60;99.90;;;;;;5053767;28;20434;-63
2023/10/10 01:19:58;;;;;;;4.00;2.43;;;14.60;99.90;;;;;;5053802;28;20512;-63
2023/10/10 01:22:39;;;;;;;5.33;3.73;;;14.60;99.90;;;;;;5053474;28;20863;-63
2023/10/10 01:25:30;;;;;;;7.13;3.33;;;14.60;99.90;;;;;;5053460;28;20918;-63
2023/10/10 01:27:58;;;;;;;6.93;3.83;;;14.60;99.90;;;;;;5053253;28;20889;-63
2023/10/10 01:33:06;;;;;;;11.33;4.30;;;14.60;99.90;;;;;;5052750;28;20551;-62
2023/10/10 01:35:34;;;;;;;5.10;3.33;;;14.60;99.90;;;;;;5053556;28;20530;-62
2023/10/10 01:38:03;;;;;;;6.13;2.90;;;14.60;99.90;;;;;;5053739;28;20500;-63
2023/10/10 01:40:37;;;;;;;3.30;2.83;;;14.60;99.90;;;;;;5053412;28;20863;-63
2023/10/10 01:43:07;;;;;;;6.50;3.77;;;14.50;99.90;;;;;;5053676;28;20486;-63
2023/10/10 01:45:37;;;;;;;6.20;3.13;;;14.50;99.90;;;;;;5053383;28;20932;-62
2023/10/10 01:48:08;;;;;;;4.93;3.23;;;14.50;99.90;;;;;;5054080;28;20427;-63
2023/10/10 01:50:34;;;;;;;5.23;3.13;;;14.50;99.90;;;;;;5053291;28;20984;-63
2023/10/10 01:53:05;;;;;;;9.77;3.57;;;14.50;99.90;;;;;;5052916;28;20982;-63
2023/10/10 01:55:33;;;;;;;6.77;3.47;;;14.60;99.90;;;;;;5053600;28;20512;-63
2023/10/10 01:58:01;;;;;;;7.03;3.17;;;14.60;99.90;;;;;;5053735;28;20444;-63
2023/10/10 02:00:34;;;;;;;5.60;3.00;;;14.60;99.90;;;;;;5053135;28;20454;-65
2023/10/10 02:03:01;;;;;;;3.67;2.90;;;14.60;99.90;;;;;;5052776;28;20965;-64
2023/10/10 02:05:41;;;;;;;4.90;2.90;;;14.60;99.90;;;;;;5053196;28;20451;-62
2023/10/10 02:08:11;;;;;;;3.47;3.00;;;14.60;99.90;;;;;;5053377;28;20427;-64
2023/10/10 02:10:43;;;;;;;5.33;3.30;;;14.60;99.90;;;;;;5053382;28;20447;-62
2023/10/10 02:13:11;;;;;;;4.20;3.17;;;14.60;99.90;;;;;;5056297;28;20554;-63
2023/10/10 02:15:39;;;;;;;6.43;3.47;;;14.50;99.90;;;;;;5057036;28;20530;-63
2023/10/10 02:18:12;;;;;;;5.20;3.13;;;14.60;99.90;;;;;;5057340;28;20467;-63
2023/10/10 02:23:32;;;;;;;6.93;3.60;;;14.50;99.90;;;;;;5049678;28;20452;-63
2023/10/10 02:26:14;;;;;;;6.13;3.80;;;14.50;99.90;;;;;;5057032;28;20518;-63
2023/10/10 02:28:47;;;;;;;6.37;3.40;;;14.50;99.90;;;;;;5056593;28;20801;-64
2023/10/10 02:31:16;;;;;;;5.90;3.80;;;14.50;99.90;;;;;;5056675;28;20416;-63
2023/10/10 02:33:49;;;;;;;6.13;4.10;;;14.50;99.90;;;;;;5097092;22;20491;-61
2023/10/10 02:36:29;;;;;;;7.00;3.70;;;14.50;99.90;;;;;;5076740;28;20419;-59
2023/10/10 02:39:02;;;;;;;6.03;3.97;;;14.50;99.90;;;;;;5076651;28;20427;-60
2023/10/10 02:41:38;;;;;;;5.93;3.43;;;14.50;99.90;;;;;;5076711;28;20843;-59
2023/10/10 02:44:09;;;;;;;8.17;4.67;;;14.50;99.90;;;;;;5056533;28;20428;-59
2023/10/10 02:46:38;;;;;;;4.93;4.17;;;14.50;99.90;;;;;;5056476;28;20471;-60
2023/10/10 02:49:29;;;;;;;9.10;4.60;;;14.50;99.90;;;;;;5056691;28;20454;-60
2023/10/10 02:51:57;;;;;;;8.47;5.60;;;14.50;99.90;;;;;;5056062;28;20460;-61
2023/10/10 02:54:32;;;;;;;6.00;4.13;;;14.50;99.90;;;;;;5056320;28;20447;-60
2023/10/10 02:57:26;;;;;;;4.90;3.67;;;14.50;99.90;;;;;;5056275;28;20507;-60
2023/10/10 02:59:50;;;;;;;7.10;3.13;;;14.60;99.90;;;;;;5055708;28;20436;-60
2023/10/10 03:02:19;;;;;;;8.40;3.97;;;14.60;99.90;;;;;;5056075;28;20487;-61
2023/10/10 03:05:06;;;;;;;8.80;3.63;;;14.60;99.90;;;;;;5055935;28;20531;-60
2023/10/10 03:07:33;;;;;;;4.47;3.40;;;14.60;99.90;;;;;;5056457;28;20432;-60
2023/10/10 03:10:23;;;;;;;7.60;4.37;;;14.60;99.90;;;;;;5056229;28;20439;-60
2023/10/10 03:12:53;;;;;;;6.07;3.73;;;14.60;99.90;;;;;;5055665;28;20456;-60
2023/10/10 03:15:29;;;;;;;3.90;3.40;;;14.60;99.90;;;;;;5055948;28;20479;-60
2023/10/10 03:18:18;;;;;;;7.57;3.67;;;14.60;99.90;;;;;;5055765;28;20521;-60
2023/10/10 03:21:12;;;;;;;4.20;3.73;;;14.60;99.90;;;;;;5055671;28;20490;-60
2023/10/10 03:23:52;;;;;;;10.53;3.90;;;14.70;99.90;;;;;;5054641;28;20658;-60
2023/10/10 03:26:33;;;;;;;6.10;3.70;;;14.60;99.90;;;;;;5055308;28;20910;-60
2023/10/10 03:29:04;;;;;;;4.03;3.40;;;14.60;99.90;;;;;;5055613;28;20436;-60
2023/10/10 03:31:39;;;;;;;4.37;3.63;;;14.60;99.90;;;;;;5055974;28;20424;-60
2023/10/10 03:34:11;;;;;;;5.43;3.23;;;14.60;99.90;;;;;;5055823;28;20420;-60
2023/10/10 03:36:44;;;;;;;7.07;3.90;;;14.60;99.90;;;;;;5055845;28;20449;-60
2023/10/10 05:23:47;;;;;;;2.23;2.03;;;14.70;99.90;;;;;;5078701;28;20774;-61
2023/10/10 05:26:15;;;;;;;4.93;2.47;;;14.80;99.90;;;;;;5077394;28;20881;-62
2023/10/10 05:28:45;;;;;;;5.13;2.50;;;14.70;99.90;;;;;;5077265;28;20482;-64
2023/10/10 05:31:12;;;;;;;5.20;2.43;;;14.80;99.90;;;;;;5077269;28;20486;-62
2023/10/10 05:33:41;;;;;;;4.00;2.70;;;14.80;99.90;;;;;;5077226;28;20446;-63
2023/10/10 05:36:07;;;;;;;3.93;2.30;;;14.80;99.90;;;;;;5077567;28;20824;-63
2023/10/10 05:38:39;;;;;;;2.70;2.17;;;14.80;99.90;;;;;;5076826;28;20450;-64
2023/10/10 05:41:07;;;;;;;3.27;2.50;;;14.80;99.90;;;;;;5077025;28;20426;-64
2023/10/10 05:43:34;;;;;;;4.40;2.87;;;14.80;99.90;;;;;;5077244;28;20456;-64
2023/10/10 05:46:03;;;;;;;2.93;2.30;;;14.80;99.90;;;;;;5076452;28;20439;-62
2023/10/10 05:48:31;;;;;;;4.10;2.60;;;14.80;99.90;;;;;;5076844;28;20447;-65
2023/10/10 05:51:00;;;;;;;4.30;3.10;;;14.80;99.90;;;;;;5076010;28;20467;-62
2023/10/10 05:53:32;;;;;;;3.83;3.27;;;14.80;99.90;;;;;;5076551;28;20537;-64
2023/10/10 05:56:12;;;;;;;4.07;3.23;;;14.80;99.90;;;;;;5077178;28;20455;-64
2023/10/10 05:58:39;;;;;;;4.27;3.27;;;14.80;99.90;;;;;;5075822;28;21008;-63
2023/10/10 06:01:09;;;;;;;5.47;3.17;;;14.80;99.90;;;;;;5076972;28;20435;-64
2023/10/10 06:03:37;;;;;;;4.70;3.60;;;14.90;99.90;;;;;;5077322;28;20610;-63
2023/10/10 06:06:06;;;;;;;8.97;4.00;;;14.80;99.90;;;;;;5076688;28;20450;-63
2023/10/10 06:08:32;;;;;;;5.53;3.90;;;14.90;99.90;;;;;;5076125;28;20451;-63
2023/10/10 06:10:59;;;;;;;4.10;3.37;;;14.90;99.90;;;;;;5075673;28;20482;-65
2023/10/10 06:13:29;;;;;;;3.50;3.20;;;14.90;99.90;;;;;;5075786;28;20473;-64
2023/10/10 06:15:57;;;;;;;4.03;3.23;;;15.00;99.90;;;;;;5076053;28;20505;-64
2023/10/10 06:18:25;;;;;;;5.20;3.57;;;14.90;99.90;;;;;;5076380;28;20446;-64
2023/10/10 06:20:52;;;;;;;6.70;4.50;;;15.00;99.90;;;;;;5076021;28;20435;-65
2023/10/10 06:23:21;;;;;;;6.10;4.10;;;15.00;99.90;;;;;;5075728;28;20450;-64
2023/10/10 06:25:48;;;;;;;5.03;3.40;;;15.10;99.90;;;;;;5075558;28;20873;-63
2023/10/10 06:28:25;;;;;;;4.87;3.50;;;15.10;99.90;;;;;;5077315;28;20447;-63
2023/10/10 06:30:53;;;;;;;6.60;4.97;;;15.20;99.90;;;;;;5075686;28;20892;-64
2023/10/10 06:33:27;;;;;;;4.70;4.20;;;15.20;99.90;;;;;;5075593;28;20439;-65
2023/10/10 06:36:18;;;;;;;5.50;3.93;;;15.30;99.90;;;;;;5074619;28;20897;-63
2023/10/10 06:38:46;;;;;;;4.60;3.50;;;15.40;99.90;;;;;;5075031;28;20448;-63
2023/10/10 06:41:17;;;;;;;5.80;4.63;;;15.50;99.90;;;;;;5075968;28;20831;-64
2023/10/10 06:43:46;;;;;;;4.83;4.27;;;15.60;99.90;;;;;;5075811;28;20427;-63
2023/10/10 06:46:17;;;;;;;4.90;4.20;;;15.70;99.90;;;;;;5075328;28;20807;-63
2023/10/10 06:48:47;;;;;;;5.00;3.90;;;15.80;99.90;;;;;;5075715;28;20445;-64
2023/10/10 06:51:15;;;;;;;5.70;3.80;;;15.80;99.90;;;;;;5074755;28;20485;-64
2023/10/10 06:53:45;;;;;;;4.20;3.70;;;15.80;99.90;;;;;;5076036;28;20446;-64
2023/10/10 06:56:15;;;;;;;7.00;4.43;;;15.90;99.90;;;;;;5075755;28;20883;-64
2023/10/10 06:58:46;;;;;;;5.10;4.17;;;15.90;99.90;;;;;;5075486;28;20481;-64
2023/10/10 07:01:18;;;;;;;6.40;4.60;;;16.00;99.90;;;;;;5075106;28;20499;-64
2023/10/10 07:03:54;;;;;;;6.23;4.27;;;16.00;99.90;;;;;;5075232;28;20429;-64
2023/10/10 07:06:21;;;;;;;4.20;3.57;;;16.00;99.90;;;;;;5075450;28;20424;-64
2023/10/10 07:08:49;;;;;;;7.97;4.20;;;16.10;99.90;;;;;;5075386;28;20436;-62
2023/10/10 07:11:20;;;;;;;5.03;3.60;;;16.10;99.90;;;;;;5074449;28;20487;-64
2023/10/10 07:13:58;;;;;;;4.00;3.20;;;16.10;99.90;;;;;;5074592;28;20486;-63
2023/10/10 07:16:25;;;;;;;4.07;3.37;;;16.20;99.90;;;;;;5074719;28;20434;-65
2023/10/10 07:18:56;;;;;;;4.57;3.30;;;16.20;99.90;;;;;;5074418;28;20973;-63
2023/10/10 07:21:30;;;;;;;4.70;3.17;;;16.20;99.90;;;;;;5075222;28;20460;-64
2023/10/10 07:24:13;;;;;;;8.37;3.67;;;16.30;99.90;;;;;;5075062;28;20428;-65
2023/10/10 07:26:46;;;;;;;4.57;3.40;;;16.30;99.90;;;;;;5074308;28;20492;-63
2023/10/10 07:29:49;;;;;;;5.00;3.40;;;16.40;99.90;;;;;;5074408;28;20848;-63
2023/10/10 07:32:17;;;;;;;4.87;3.17;;;16.40;99.90;;;;;;5074648;28;20503;-63
2023/10/10 07:34:49;;;;;;;5.13;3.23;;;16.50;99.90;;;;;;5082111;28;20456;-64
2023/10/10 07:37:16;;;;;;;5.33;3.90;;;16.60;99.90;;;;;;5087178;28;20456;-65
2023/10/10 07:39:55;;;;;;;9.70;3.60;;;16.60;99.90;;;;;;5079583;28;20537;-63
2023/10/10 07:42:27;;;;;;;6.40;3.67;;;16.70;99.90;;;;;;5076563;28;20502;-63
2023/10/10 07:44:55;;;;;;;6.13;3.80;;;16.70;99.90;;;;;;5075209;28;20426;-63
2023/10/10 07:47:25;;;;;;;5.80;3.70;;;16.70;99.90;;;;;;5074247;28;20441;-64
2023/10/10 07:49:52;;;;;;;7.23;3.40;;;16.80;99.90;;;;;;5075578;28;20466;-63
2023/10/10 07:52:21;;;;;;;4.70;3.93;;;16.80;99.90;;;;;;5075152;28;20492;-64
2023/10/10 07:54:51;;;;;;;4.90;3.70;;;17.00;99.90;;;;;;5075461;28;20496;-62
2023/10/10 07:57:17;;;;;;;6.20;3.63;;;17.20;99.90;;;;;;5075205;28;20462;-64
2023/10/10 07:59:46;;;;;;;7.20;4.33;;;17.40;99.90;;;;;;5074726;28;20443;-63
2023/10/10 08:02:24;;;;;;;6.03;4.47;;;17.60;99.90;;;;;;5075454;28;20895;-64
2023/10/10 08:04:51;;;;;;;4.53;4.10;;;17.60;99.90;;;;;;5074262;28;20431;-64
2023/10/10 08:07:19;;;;;;;6.47;5.20;;;17.60;99.90;;;;;;5073903;28;20438;-63
2023/10/10 08:09:48;;;;;;;5.83;5.17;;;17.50;99.90;;;;;;5074558;28;20451;-63
2023/10/10 08:12:15;;;;;;;6.30;4.80;;;17.50;99.90;;;;;;5073893;28;21008;-62
2023/10/10 08:14:42;;;;;;;6.57;5.50;;;17.40;99.90;;;;;;5073721;28;20546;-62
2023/10/10 08:17:19;;;;;;;7.27;5.33;;;17.50;99.90;;;;;;5074327;28;20812;-62
2023/10/10 08:19:50;;;;;;;6.97;5.20;;;17.50;99.90;;;;;;5075531;28;20424;-64
2023/10/10 08:22:19;;;;;;;6.70;5.70;;;17.50;99.90;;;;;;5075060;28;20455;-62
2023/10/10 08:24:46;;;;;;;7.47;6.07;;;17.60;99.90;;;;;;5074292;28;20524;-63
2023/10/10 08:27:14;;;;;;;8.40;5.83;;;17.60;99.90;;;;;;5074035;28;20435;-62
2023/10/10 08:29:41;;;;;;;7.60;6.40;;;17.70;99.90;;;;;;5075074;28;20855;-64
2023/10/10 08:32:08;;;;;;;9.83;7.10;;;17.60;99.90;;;;;;5073234;28;20895;-63
2023/10/10 08:34:38;;;;;;;7.87;5.43;;;17.60;99.90;;;;;;5073619;28;20497;-64
2023/10/10 08:37:05;;;;;;;8.50;6.30;;;17.70;99.90;;;;;;5073192;28;20538;-63
2023/10/10 08:39:36;;;;;;;9.20;6.70;;;17.70;99.90;;;;;;5075723;28;20566;-63
2023/10/10 08:42:06;;;;;;;11.10;6.47;;;17.80;99.90;;;;;;5075613;28;20508;-63
2023/10/10 08:44:38;;;;;;;9.97;6.47;;;17.90;99.90;;;;;;5075209;28;20538;-63
2023/10/10 08:47:07;;;;;;;10.07;6.53;;;18.00;99.90;;;;;;5076793;28;20508;-63
2023/10/10 08:49:34;;;;;;;8.97;6.97;;;18.10;99.90;;;;;;5076625;28;20471;-63
2023/10/10 08:52:03;;;;;;;9.10;6.10;;;18.10;99.90;;;;;;5076525;28;20571;-63
2023/10/10 08:54:30;;;;;;;8.27;7.27;;;18.20;99.90;;;;;;5078996;28;20500;-63
2023/10/10 08:57:10;;;;;;;7.40;6.40;;;18.30;99.90;;;;;;5075861;28;20816;-63
2023/10/10 08:59:42;;;;;;;8.17;7.17;;;18.30;99.90;;;;;;5079880;28;20485;-63
2023/10/10 09:02:11;;;;;;;13.07;7.53;;;18.30;99.90;;;;;;5079157;28;20464;-64
2023/10/10 09:04:38;;;;;;;10.63;6.60;;;18.40;99.90;;;;;;5079299;28;20452;-63
2023/10/10 09:07:18;;;;;;;10.90;6.57;;;18.50;99.90;;;;;;5081654;28;20520;-64
2023/10/10 09:09:54;;;;;;;12.73;7.20;;;18.50;99.90;;;;;;5083603;28;20458;-64
2023/10/10 09:12:21;;;;;;;9.53;7.93;;;18.40;99.90;;;;;;5080267;28;20595;-63
2023/10/10 09:14:50;;;;;;;10.73;7.30;;;18.30;99.90;;;;;;5081189;28;20442;-63
2023/10/10 09:17:28;;;;;;;9.53;6.80;;;18.30;99.90;;;;;;5079008;28;20445;-63
2023/10/10 09:19:57;;;;;;;8.10;7.30;;;18.30;99.90;;;;;;5078824;28;20489;-63
2023/10/10 09:22:34;;;;;;;8.53;6.93;;;18.40;99.90;;;;;;5078050;28;20474;-63
2023/10/10 09:25:17;;;;;;;9.17;7.70;;;18.40;99.90;;;;;;5077274;28;20894;-64
2023/10/10 09:27:58;;;;;;;11.30;7.13;;;18.50;99.90;;;;;;5076856;28;20481;-63
2023/10/10 09:30:31;;;;;;;10.47;7.40;;;18.50;99.90;;;;;;5076578;28;20423;-63
2023/10/10 09:33:02;;;;;;;11.47;8.27;;;18.60;99.90;;;;;;5078120;28;20487;-62
2023/10/10 09:35:29;;;;;;;15.77;7.83;;;18.60;99.90;;;;;;5077712;28;20432;-63
2023/10/10 09:38:00;;;;;;;11.40;7.00;;;18.60;99.90;;;;;;5078248;28;20441;-62
2023/10/10 09:40:33;;;;;;;14.37;7.60;;;18.50;99.90;;;;;;5078520;28;20775;-62
2023/10/10 09:43:12;;;;;;;13.83;7.70;;;18.50;99.90;;;;;;5080635;28;20466;-64
2023/10/10 09:45:55;;;;;;;10.30;8.20;;;18.50;99.90;;;;;;5079580;28;20433;-62
2023/10/10 09:49:15;;;;;;;11.57;7.10;;;18.60;99.90;;;;;;5077708;28;20814;-63
2023/10/10 09:54:25;;;;;;;12.13;8.40;;;18.70;99.90;;;;;;5077488;28;20408;-62
2023/10/10 09:56:53;;;;;;;8.83;7.93;;;18.90;99.90;;;;;;5077419;28;20457;-64
2023/10/10 09:59:28;;;;;;;11.83;7.10;;;19.10;99.90;;;;;;5079246;28;20884;-64
2023/10/10 10:01:59;;;;;;;10.23;6.73;;;19.00;99.90;;;;;;5081035;28;20522;-63
2023/10/10 10:04:36;;;;;;;9.77;8.07;;;19.00;99.90;;;;;;5081444;28;20425;-63
2023/10/10 10:07:28;;;;;;;9.60;7.60;;;18.90;99.90;;;;;;5080924;28;20831;-64
2023/10/10 10:10:36;;;;;;;7.27;6.13;;;18.80;99.90;;;;;;5081423;28;20517;-64
2023/10/10 10:13:26;;;;;;;8.60;6.37;;;18.90;99.90;;;;;;5079828;28;20495;-64
2023/10/10 10:16:09;;;;;;;8.70;7.63;;;19.00;99.90;;;;;;5079066;28;20441;-64
2023/10/10 10:18:45;;;;;;;10.67;6.83;;;19.10;99.90;;;;;;5078169;28;20485;-64
2023/10/10 10:21:18;;;;;;;9.53;6.57;;;19.20;99.90;;;;;;5076757;28;20473;-63
2023/10/10 10:23:55;;;;;;;11.00;7.20;;;19.40;99.90;;;;;;5077687;28;20424;-63
2023/10/10 10:26:35;;;;;;;8.83;7.10;;;19.60;99.90;;;;;;5076571;28;20922;-63
2023/10/10 10:29:15;;;;;;;11.80;6.77;;;19.80;99.90;;;;;;5076211;28;20443;-63
2023/10/10 10:31:49;;;;;;;7.40;5.97;;;20.00;99.90;;;;;;5075530;28;20557;-63
2023/10/10 10:34:24;;;;;;;9.17;5.97;;;20.10;99.90;;;;;;5076136;28;20425;-63
2023/10/10 10:36:56;;;;;;;8.50;6.03;;;20.10;99.90;;;;;;5075165;28;20519;-65
2023/10/10 10:39:25;;;;;;;11.43;7.47;;;20.20;99.90;;;;;;5075613;28;20917;-63
2023/10/10 10:41:56;;;;;;;6.77;6.03;;;20.50;99.90;;;;;;5075421;28;20472;-63
2023/10/10 10:44:54;;;;;;;7.80;6.80;;;20.70;99.90;;;;;;5075368;28;20821;-63
2023/10/10 10:47:51;;;;;;;7.10;6.00;;;20.80;99.90;;;;;;5078923;28;20971;-64
2023/10/10 10:50:45;;;;;;;9.43;4.90;;;20.70;99.90;;;;;;5075253;28;20909;-63
2023/10/10 10:53:30;;;;;;;11.73;6.63;;;20.60;99.90;;;;;;5075155;28;20479;-63
2023/10/10 10:56:37;;;;;;;8.07;5.90;;;20.60;99.90;;;;;;5075880;28;20467;-64
2023/10/10 10:59:13;;;;;;;6.47;5.87;;;20.70;99.90;;;;;;5074763;28;20444;-63
2023/10/10 11:01:55;;;;;;;6.03;5.43;;;20.80;99.90;;;;;;5075785;28;20467;-64
2023/10/10 11:04:43;;;;;;;7.93;5.60;;;20.90;99.90;;;;;;5076345;28;20479;-64
2023/10/10 11:07:16;;;;;;;7.27;6.03;;;20.90;99.90;;;;;;5075048;28;20455;-62
2023/10/10 11:09:52;;;;;;;9.40;5.23;;;20.90;99.90;;;;;;5075683;28;20518;-63
2023/10/10 11:12:21;;;;;;;10.60;6.10;;;21.00;99.90;;;;;;5074988;28;20986;-64
2023/10/10 11:14:49;;;;;;;11.90;6.70;;;21.10;99.90;;;;;;5075274;28;20475;-63
2023/10/10 11:17:18;;;;;;;6.83;5.80;;;21.00;99.90;;;;;;5076359;28;20435;-63
2023/10/10 11:19:47;;;;;;;10.57;8.30;;;21.00;99.90;;;;;;5076251;28;20443;-65
2023/10/10 11:22:38;;;;;;;8.83;7.03;;;21.00;99.90;;;;;;5075729;28;20467;-63
2023/10/10 11:25:06;;;;;;;9.00;6.90;;;21.00;99.90;;;;;;5076006;28;20442;-62
2023/10/10 11:27:43;;;;;;;7.70;6.93;;;21.10;99.90;;;;;;5077180;28;20466;-62
2023/10/10 11:30:19;;;;;;;8.53;6.17;;;21.30;99.90;;;;;;5074845;28;20479;-62
2023/10/10 11:32:47;;;;;;;7.80;7.00;;;21.40;99.90;;;;;;5075158;28;20499;-64
2023/10/10 11:35:22;;;;;;;10.07;7.60;;;21.50;99.90;;;;;;5074460;28;20969;-64
2023/10/10 11:37:59;;;;;;;8.90;7.30;;;21.60;99.90;;;;;;5075237;28;20937;-64
2023/10/10 11:40:32;;;;;;;9.20;7.93;;;21.70;99.90;;;;;;5075035;28;20510;-64
2023/10/10 11:43:03;;;;;;;11.40;7.67;;;21.90;99.90;;;;;;5075657;28;20505;-63
2023/10/10 11:45:39;;;;;;;9.10;7.90;;;22.00;99.90;;;;;;5075124;28;20435;-63
2023/10/10 11:48:12;;;;;;;9.00;8.10;;;22.00;99.90;;;;;;5074712;28;20431;-64
2023/10/10 11:50:46;;;;;;;12.20;9.37;;;21.80;99.90;;;;;;5074826;28;20431;-64
2023/10/10 11:53:15;;;;;;;9.87;8.83;;;21.80;99.90;;;;;;5074471;28;20557;-63
2023/10/10 11:55:42;;;;;;;11.63;8.80;;;22.00;99.90;;;;;;5073728;28;20486;-64
2023/10/10 11:58:08;;;;;;;13.53;10.30;;;22.10;99.90;;;;;;5075066;28;20541;-63
2023/10/10 12:00:42;;;;;;;14.00;11.17;;;22.10;99.90;;;;;;5074732;28;20442;-63
2023/10/10 12:03:09;;;;;;;10.60;8.70;;;22.20;99.90;;;;;;5075887;28;20523;-62
2023/10/10 12:05:47;;;;;;;10.13;9.13;;;22.30;99.90;;;;;;5075303;28;20439;-64
2023/10/10 12:08:15;;;;;;;11.50;9.43;;;22.40;99.90;;;;;;5075456;28;20511;-64
2023/10/10 12:10:53;;;;;;;13.57;10.10;;;22.40;99.90;;;;;;5075076;28;20455;-64
2023/10/10 12:13:33;;;;;;;16.30;14.70;;;22.40;99.90;;;;;;5075280;28;20512;-64
2023/10/10 12:16:07;;;;;;;16.30;12.70;;;22.50;99.90;;;;;;5075048;28;20423;-62
2023/10/10 12:18:35;;;;;;;15.20;13.63;;;22.60;99.90;;;;;;5075837;28;20422;-62
2023/10/10 12:21:02;;;;;;;12.30;10.43;;;22.60;99.90;;;;;;5077179;28;20481;-63
2023/10/10 12:23:30;;;;;;;9.83;8.80;;;22.70;99.70;;;;;;5079791;28;20534;-62
2023/10/10 12:25:59;;;;;;;14.03;10.07;;;22.70;99.60;;;;;;5078037;28;20504;-63
2023/10/10 12:28:26;;;;;;;11.10;9.03;;;22.80;99.40;;;;;;5076303;28;20466;-62
2023/10/10 12:30:56;;;;;;;23.87;21.37;;;22.80;99.00;;;;;;5076298;28;20443;-63
2023/10/10 12:33:25;;;;;;;12.17;10.87;;;22.80;98.80;;;;;;5078535;28;20470;-63
2023/10/10 12:35:52;;;;;;;14.03;10.60;;;22.80;98.60;;;;;;5079873;28;20449;-63
2023/10/10 12:38:21;;;;;;;10.97;9.17;;;22.80;98.50;;;;;;5079828;28;20443;-63
2023/10/10 12:40:48;;;;;;;11.90;9.53;;;22.80;98.50;;;;;;5080933;28;20914;-64
2023/10/10 12:43:15;;;;;;;12.00;8.90;;;22.70;98.40;;;;;;5081044;28;20538;-63
2023/10/10 12:45:42;;;;;;;10.63;9.40;;;22.60;98.60;;;;;;5079753;28;20443;-63
2023/10/10 12:48:14;;;;;;;14.10;10.77;;;22.50;98.80;;;;;;5081093;28;20516;-65
2023/10/10 12:50:44;;;;;;;11.83;10.33;;;22.40;99.00;;;;;;5080104;28;20461;-64
2023/10/10 12:53:15;;;;;;;10.33;8.10;;;22.40;99.10;;;;;;5079913;28;20563;-63
2023/10/10 12:55:48;;;;;;;12.60;9.40;;;22.40;99.30;;;;;;5080718;28;20430;-64
2023/10/10 12:58:16;;;;;;;12.30;8.80;;;22.50;99.40;;;;;;5079639;28;20473;-63
2023/10/10 13:00:50;;;;;;;10.40;8.80;;;22.50;99.30;;;;;;5080097;28;20455;-63
2023/10/10 13:03:18;;;;;;;12.73;10.60;;;22.50;99.20;;;;;;5080308;28;20431;-64
2023/10/10 13:05:52;;;;;;;13.10;10.30;;;22.50;99.10;;;;;;5079165;28;20558;-64
2023/10/10 13:08:20;;;;;;;14.50;9.70;;;22.40;99.10;;;;;;5078750;28;20489;-63
2023/10/10 13:10:54;;;;;;;11.00;9.87;;;22.40;99.30;;;;;;5079598;28;20459;-64
2023/10/10 13:13:26;;;;;;;11.80;9.17;;;22.40;99.30;;;;;;5079796;28;20900;-63
2023/10/10 13:16:07;;;;;;;12.53;8.47;;;22.50;99.30;;;;;;5080027;28;20515;-63
2023/10/10 13:18:35;;;;;;;12.03;10.40;;;22.50;99.10;;;;;;5078858;28;20431;-64
2023/10/10 13:21:03;;;;;;;11.90;9.40;;;22.50;99.10;;;;;;5079093;28;20446;-63
2023/10/10 13:23:30;;;;;;;12.37;9.47;;;22.60;99.20;;;;;;5078345;28;20446;-62
2023/10/10 13:25:58;;;;;;;13.23;9.13;;;22.60;99.20;;;;;;5078867;28;20811;-64
2023/10/10 13:28:24;;;;;;;15.40;10.10;;;22.70;99.30;;;;;;5079170;28;20509;-64
2023/10/10 13:30:51;;;;;;;12.63;10.60;;;22.60;99.30;;;;;;5078672;28;20546;-63
2023/10/10 13:33:20;;;;;;;12.57;9.53;;;22.60;99.20;;;;;;5079153;28;20489;-65
2023/10/10 13:35:48;;;;;;;12.67;10.00;;;22.50;99.20;;;;;;5079488;28;20492;-64
2023/10/10 13:38:16;;;;;;;11.47;9.50;;;22.50;99.40;;;;;;5078615;28;20450;-64
2023/10/10 13:40:46;;;;;;;14.70;10.40;;;22.60;99.50;;;;;;5079412;28;20454;-64
2023/10/10 13:43:16;;;;;;;16.40;11.57;;;22.70;99.30;;;;;;5078569;28;20442;-64
2023/10/10 13:45:44;;;;;;;15.73;10.00;;;22.90;98.90;;;;;;5077269;28;20450;-64
2023/10/10 13:48:13;;;;;;;14.07;10.67;;;23.00;98.50;;;;;;5076835;28;20447;-62
2023/10/10 13:50:44;;;;;;;12.80;10.00;;;23.10;98.20;;;;;;5076240;28;20500;-63
2023/10/10 13:53:12;;;;;;;12.80;9.00;;;23.20;98.00;;;;;;5077206;28;20483;-65
2023/10/10 13:55:42;;;;;;;15.13;9.50;;;23.30;97.90;;;;;;5076839;28;20443;-63
2023/10/10 13:58:11;;;;;;;11.63;9.43;;;23.30;97.60;;;;;;5076537;28;20435;-63
2023/10/10 14:00:39;;;;;;;15.20;9.20;;;23.30;97.20;;;;;;5076887;28;20454;-63
2023/10/10 14:03:07;;;;;;;10.40;8.90;;;23.20;97.00;;;;;;5076807;28;20463;-63
2023/10/10 14:05:35;;;;;;;14.33;9.53;;;23.20;96.90;;;;;;5076320;28;20474;-64
2023/10/10 14:08:03;;;;;;;11.90;9.47;;;23.00;97.00;;;;;;5077403;28;20453;-64
2023/10/10 14:10:38;;;;;;;11.10;8.53;;;22.90;97.30;;;;;;5077362;28;20454;-63
2023/10/10 14:13:23;;;;;;;10.90;8.77;;;22.70;97.30;;;;;;5077022;28;20486;-63
2023/10/10 14:15:57;;;;;;;9.50;7.50;;;22.60;97.60;;;;;;5078147;28;20858;-63
2023/10/10 14:18:28;;;;;;;11.50;8.03;;;22.60;97.70;;;;;;5077668;28;20525;-65
2023/10/10 14:20:56;;;;;;;13.03;8.27;;;22.60;97.70;;;;;;5078510;28;20419;-64
2023/10/10 14:23:24;;;;;;;10.63;7.80;;;22.60;97.60;;;;;;5077014;28;20807;-63
2023/10/10 14:25:51;;;;;;;15.67;8.07;;;22.70;97.40;;;;;;5077080;28;20465;-63
2023/10/10 14:28:20;;;;;;;9.67;8.00;;;22.80;97.00;;;;;;5076744;28;20467;-62
2023/10/10 14:30:49;;;;;;;15.90;7.30;;;22.80;96.30;;;;;;5076424;28;20439;-63
2023/10/10 14:33:17;;;;;;;10.87;7.03;;;22.80;95.70;;;;;;5076587;28;20581;-63
2023/10/10 14:35:45;;;;;;;9.17;7.90;;;22.80;95.00;;;;;;5076888;28;20783;-63
2023/10/10 14:38:14;;;;;;;12.47;7.03;;;22.80;94.50;;;;;;5076955;28;20447;-64
2023/10/10 14:40:41;;;;;;;9.77;7.57;;;22.80;94.10;;;;;;5076887;28;20458;-63
2023/10/10 14:43:09;;;;;;;8.57;6.20;;;22.70;93.60;;;;;;5079892;28;20517;-62
2023/10/10 14:45:42;;;;;;;13.20;8.30;;;22.70;93.40;;;;;;5083260;28;20447;-63
2023/10/10 14:48:10;;;;;;;10.30;7.60;;;22.70;92.50;;;;;;5081409;28;20521;-62
2023/10/10 14:50:40;;;;;;;8.33;6.90;;;22.70;92.40;;;;;;5077513;28;20451;-64
2023/10/10 14:53:09;;;;;;;9.17;6.50;;;22.80;92.10;;;;;;5076471;28;20550;-63
2023/10/10 14:55:44;;;;;;;11.63;6.60;;;22.80;91.50;;;;;;5076082;28;20552;-64
2023/10/10 14:58:12;;;;;;;7.13;5.90;;;22.80;91.10;;;;;;5076525;28;20919;-62
2023/10/10 15:00:41;;;;;;;11.37;7.07;;;22.80;90.70;;;;;;5076231;28;20443;-64
2023/10/10 15:03:15;;;;;;;6.80;5.60;;;22.80;90.50;;;;;;5078438;28;20467;-63